Ayers Rock, Northern Territory

11:58 PM ACST on April 01, 2015 (GMT +0930)
Ayers Rock (Connellan) | | Change Station
CLOSE
Current Station
Airport
Location: Ayers Rock,
Elevation: 1627 ft
Nearby Weather Stations

Elev 1627 ft 25.19 °S, 130.98 °E | Updated 28 minutes ago

Clear
Clear
79 °F
Feels Like 79 °F
N
15
Wind Variable Wind from South

Today
High -- | Low -- °F
--% Chance of Precip.
Yesterday
High -- | Low -- °F
Precip. -- in
6:54 AM 6:45 PM
Waxing Gibbous, 93% visible
Pressure 30.04 in
Visibility 6.2 miles
Clouds
Dew Point 52 °F
Humidity 39%
Rainfall 0.00 in
Snow Depth Not available.
UV Not available.
Pollen Not available.
Air Quality Not available.
Flu Activity Not available.
METAR YAYE 011400Z AUTO 17013KT 9999 // NCD 26/11 Q1017

More Conditions Fewer Conditions

Pressure 30.04 in
Visibility 6.2 miles
Clouds
Dew Point 52 °F
Humidity 39%
Rainfall 0.00 in
Snow Depth Not available.
UV Not available.
Pollen Not available.
Air Quality Not available.
Flu Activity Not available.
METAR YAYE 011400Z AUTO 17013KT 9999 // NCD 26/11 Q1017

More Conditions Fewer Conditions

10-Day Weather Forecast

Almanac

Astronomy

Apr. 01, 2015 Rise Set
Actual Time
Civil Twilight
Nautical Twilight
Astronomical Twilight
Moon
Length of Visible Light
Length of Day
Tomorrow will be .
, % of the Moon is Illuminated

Today's Extremes

Country Highs Country Lows

Community

WunderPhotos

Upload Photos

1,809,962 photos uploaded!

WunderBlogs® & News

Nearby

Air Quality

  Air Quality AQ Index Pollutant
Not available.

Snow Depth

Station Depth Elevation

Earthquake Activity

City Distance Mag. Time & Date
Minimum magnitude displayed is 2.5.

Coastal Water Temperatures

Place Temperature

Stations

Nearby Weather Stations

Station Location Temp. Windchill Dew Point Humidity Wind Precip. Elev Updated Type